sensor_id;sensor_type;location;lat;lon;timestamp;P1;durP1;ratioP1;P2;durP2;ratioP2
6209;SDS011;3138;52.550;13.148;2022-08-19T00:00:47;24.33;;;21.87;;
6209;SDS011;3138;52.550;13.148;2022-08-19T00:03:15;27.30;;;22.90;;
6209;SDS011;3138;52.550;13.148;2022-08-19T00:05:42;23.27;;;20.97;;
6209;SDS011;3138;52.550;13.148;2022-08-19T00:08:09;22.97;;;20.53;;
6209;SDS011;3138;52.550;13.148;2022-08-19T00:10:35;28.60;;;21.00;;
6209;SDS011;3138;52.550;13.148;2022-08-19T00:13:02;30.90;;;22.50;;
6209;SDS011;3138;52.550;13.148;2022-08-19T00:15:31;24.73;;;20.00;;
6209;SDS011;3138;52.550;13.148;2022-08-19T00:17:58;24.20;;;21.40;;
6209;SDS011;3138;52.550;13.148;2022-08-19T00:20:24;22.70;;;20.37;;
6209;SDS011;3138;52.550;13.148;2022-08-19T00:22:51;21.37;;;19.17;;
6209;SDS011;3138;52.550;13.148;2022-08-19T00:25:19;25.33;;;19.93;;
6209;SDS011;3138;52.550;13.148;2022-08-19T00:27:46;21.63;;;19.43;;
6209;SDS011;3138;52.550;13.148;2022-08-19T00:30:13;24.07;;;19.30;;
6209;SDS011;3138;52.550;13.148;2022-08-19T00:32:42;22.47;;;20.10;;
6209;SDS011;3138;52.550;13.148;2022-08-19T00:35:09;21.97;;;19.63;;
6209;SDS011;3138;52.550;13.148;2022-08-19T00:37:36;21.53;;;19.23;;
6209;SDS011;3138;52.550;13.148;2022-08-19T00:40:05;23.77;;;20.07;;
6209;SDS011;3138;52.550;13.148;2022-08-19T00:42:33;21.90;;;19.67;;
6209;SDS011;3138;52.550;13.148;2022-08-19T00:45:00;20.93;;;18.47;;
6209;SDS011;3138;52.550;13.148;2022-08-19T00:47:26;25.83;;;21.00;;
6209;SDS011;3138;52.550;13.148;2022-08-19T00:49:55;22.03;;;18.87;;
6209;SDS011;3138;52.550;13.148;2022-08-19T00:52:25;21.60;;;19.43;;
6209;SDS011;3138;52.550;13.148;2022-08-19T00:54:55;21.70;;;19.60;;
6209;SDS011;3138;52.550;13.148;2022-08-19T00:57:24;22.50;;;20.03;;
6209;SDS011;3138;52.550;13.148;2022-08-19T00:59:54;32.30;;;22.23;;
6209;SDS011;3138;52.550;13.148;2022-08-19T01:02:24;28.50;;;20.60;;
6209;SDS011;3138;52.550;13.148;2022-08-19T01:04:52;20.03;;;18.07;;
6209;SDS011;3138;52.550;13.148;2022-08-19T01:07:21;24.40;;;21.23;;
6209;SDS011;3138;52.550;13.148;2022-08-19T01:09:48;23.27;;;20.77;;
6209;SDS011;3138;52.550;13.148;2022-08-19T01:12:15;27.17;;;21.23;;
6209;SDS011;3138;52.550;13.148;2022-08-19T01:14:42;29.70;;;23.53;;
6209;SDS011;3138;52.550;13.148;2022-08-19T01:17:10;25.43;;;22.63;;
6209;SDS011;3138;52.550;13.148;2022-08-19T01:19:39;25.80;;;22.10;;
6209;SDS011;3138;52.550;13.148;2022-08-19T01:22:10;26.87;;;22.57;;
6209;SDS011;3138;52.550;13.148;2022-08-19T01:24:42;29.83;;;22.77;;
6209;SDS011;3138;52.550;13.148;2022-08-19T01:27:09;26.10;;;23.27;;
6209;SDS011;3138;52.550;13.148;2022-08-19T01:29:37;24.77;;;22.07;;
6209;SDS011;3138;52.550;13.148;2022-08-19T01:32:05;25.43;;;22.70;;
6209;SDS011;3138;52.550;13.148;2022-08-19T01:34:33;26.70;;;22.50;;
6209;SDS011;3138;52.550;13.148;2022-08-19T01:37:00;31.80;;;21.70;;
6209;SDS011;3138;52.550;13.148;2022-08-19T01:39:33;27.60;;;24.10;;
6209;SDS011;3138;52.550;13.148;2022-08-19T01:42:01;25.83;;;22.50;;
6209;SDS011;3138;52.550;13.148;2022-08-19T01:44:29;27.97;;;23.77;;
6209;SDS011;3138;52.550;13.148;2022-08-19T01:46:56;29.30;;;25.57;;
6209;SDS011;3138;52.550;13.148;2022-08-19T01:49:23;27.83;;;24.47;;
6209;SDS011;3138;52.550;13.148;2022-08-19T01:51:51;27.07;;;23.97;;
6209;SDS011;3138;52.550;13.148;2022-08-19T01:54:21;30.70;;;22.87;;
6209;SDS011;3138;52.550;13.148;2022-08-19T01:56:50;29.13;;;23.17;;
6209;SDS011;3138;52.550;13.148;2022-08-19T01:59:19;25.77;;;22.77;;
6209;SDS011;3138;52.550;13.148;2022-08-19T02:01:48;26.57;;;23.20;;
6209;SDS011;3138;52.550;13.148;2022-08-19T02:04:15;31.40;;;22.83;;
6209;SDS011;3138;52.550;13.148;2022-08-19T02:06:42;27.80;;;24.27;;
6209;SDS011;3138;52.550;13.148;2022-08-19T02:09:09;30.73;;;22.90;;
6209;SDS011;3138;52.550;13.148;2022-08-19T02:11:36;27.30;;;24.33;;
6209;SDS011;3138;52.550;13.148;2022-08-19T02:14:05;24.47;;;21.90;;
6209;SDS011;3138;52.550;13.148;2022-08-19T02:16:34;26.27;;;23.53;;
6209;SDS011;3138;52.550;13.148;2022-08-19T02:19:02;40.97;;;24.30;;
6209;SDS011;3138;52.550;13.148;2022-08-19T02:21:29;32.90;;;24.13;;
6209;SDS011;3138;52.550;13.148;2022-08-19T02:23:56;27.43;;;24.63;;
6209;SDS011;3138;52.550;13.148;2022-08-19T02:26:23;39.00;;;26.60;;
6209;SDS011;3138;52.550;13.148;2022-08-19T02:28:51;29.83;;;26.67;;
6209;SDS011;3138;52.550;13.148;2022-08-19T02:31:19;34.13;;;25.23;;
6209;SDS011;3138;52.550;13.148;2022-08-19T02:33:49;36.43;;;25.43;;
6209;SDS011;3138;52.550;13.148;2022-08-19T02:36:17;37.43;;;25.13;;
6209;SDS011;3138;52.550;13.148;2022-08-19T02:38:44;34.80;;;27.30;;
6209;SDS011;3138;52.550;13.148;2022-08-19T02:41:12;34.47;;;26.33;;
6209;SDS011;3138;52.550;13.148;2022-08-19T02:43:40;35.47;;;28.17;;
6209;SDS011;3138;52.550;13.148;2022-08-19T02:46:11;37.20;;;28.60;;
6209;SDS011;3138;52.550;13.148;2022-08-19T02:48:39;36.47;;;29.50;;
6209;SDS011;3138;52.550;13.148;2022-08-19T02:51:07;32.60;;;28.30;;
6209;SDS011;3138;52.550;13.148;2022-08-19T02:53:34;35.87;;;28.80;;
6209;SDS011;3138;52.550;13.148;2022-08-19T02:56:00;33.90;;;28.90;;
6209;SDS011;3138;52.550;13.148;2022-08-19T02:58:32;47.03;;;31.30;;
6209;SDS011;3138;52.550;13.148;2022-08-19T03:00:58;39.73;;;30.57;;
6209;SDS011;3138;52.550;13.148;2022-08-19T03:03:25;40.60;;;30.40;;
6209;SDS011;3138;52.550;13.148;2022-08-19T03:06:01;37.90;;;29.63;;
6209;SDS011;3138;52.550;13.148;2022-08-19T03:08:31;44.73;;;30.23;;
6209;SDS011;3138;52.550;13.148;2022-08-19T03:10:57;43.47;;;34.10;;
6209;SDS011;3138;52.550;13.148;2022-08-19T03:13:24;39.17;;;30.47;;
6209;SDS011;3138;52.550;13.148;2022-08-19T03:15:51;39.83;;;29.57;;
6209;SDS011;3138;52.550;13.148;2022-08-19T03:18:18;38.43;;;29.63;;
6209;SDS011;3138;52.550;13.148;2022-08-19T03:20:46;34.17;;;29.30;;
6209;SDS011;3138;52.550;13.148;2022-08-19T03:23:14;47.47;;;29.00;;
6209;SDS011;3138;52.550;13.148;2022-08-19T03:25:45;40.80;;;29.70;;
6209;SDS011;3138;52.550;13.148;2022-08-19T03:28:13;41.33;;;27.47;;
6209;SDS011;3138;52.550;13.148;2022-08-19T03:30:41;39.10;;;27.03;;
6209;SDS011;3138;52.550;13.148;2022-08-19T03:33:10;30.43;;;27.17;;
6209;SDS011;3138;52.550;13.148;2022-08-19T03:35:37;32.93;;;26.90;;
6209;SDS011;3138;52.550;13.148;2022-08-19T03:38:04;29.33;;;25.53;;
6209;SDS011;3138;52.550;13.148;2022-08-19T03:40:32;32.50;;;23.13;;
6209;SDS011;3138;52.550;13.148;2022-08-19T03:43:03;31.50;;;24.10;;
6209;SDS011;3138;52.550;13.148;2022-08-19T03:45:31;26.63;;;23.73;;
6209;SDS011;3138;52.550;13.148;2022-08-19T03:47:57;26.93;;;23.90;;
6209;SDS011;3138;52.550;13.148;2022-08-19T03:50:24;33.20;;;26.10;;
6209;SDS011;3138;52.550;13.148;2022-08-19T03:52:51;30.73;;;25.60;;
6209;SDS011;3138;52.550;13.148;2022-08-19T03:55:18;30.40;;;26.50;;
6209;SDS011;3138;52.550;13.148;2022-08-19T03:57:45;28.37;;;24.73;;
6209;SDS011;3138;52.550;13.148;2022-08-19T04:00:15;35.50;;;23.60;;
6209;SDS011;3138;52.550;13.148;2022-08-19T04:02:42;31.73;;;23.70;;
6209;SDS011;3138;52.550;13.148;2022-08-19T04:05:09;32.50;;;22.90;;
6209;SDS011;3138;52.550;13.148;2022-08-19T04:07:37;28.67;;;24.00;;
6209;SDS011;3138;52.550;13.148;2022-08-19T04:10:04;30.37;;;23.70;;
6209;SDS011;3138;52.550;13.148;2022-08-19T04:12:31;28.43;;;23.30;;
6209;SDS011;3138;52.550;13.148;2022-08-19T04:14:58;25.30;;;22.60;;
6209;SDS011;3138;52.550;13.148;2022-08-19T04:17:26;29.43;;;22.47;;
6209;SDS011;3138;52.550;13.148;2022-08-19T04:19:53;27.73;;;22.83;;
6209;SDS011;3138;52.550;13.148;2022-08-19T04:22:20;25.33;;;21.63;;
6209;SDS011;3138;52.550;13.148;2022-08-19T04:24:46;29.60;;;22.80;;
6209;SDS011;3138;52.550;13.148;2022-08-19T04:27:13;28.23;;;22.33;;
6209;SDS011;3138;52.550;13.148;2022-08-19T04:29:41;27.10;;;21.37;;
6209;SDS011;3138;52.550;13.148;2022-08-19T04:32:08;25.70;;;22.37;;
6209;SDS011;3138;52.550;13.148;2022-08-19T04:34:36;26.70;;;23.10;;
6209;SDS011;3138;52.550;13.148;2022-08-19T04:37:04;26.80;;;22.73;;
6209;SDS011;3138;52.550;13.148;2022-08-19T04:39:37;24.03;;;21.47;;
6209;SDS011;3138;52.550;13.148;2022-08-19T04:42:22;26.83;;;23.17;;
6209;SDS011;3138;52.550;13.148;2022-08-19T04:45:05;28.50;;;23.37;;
6209;SDS011;3138;52.550;13.148;2022-08-19T04:47:34;35.83;;;24.30;;
6209;SDS011;3138;52.550;13.148;2022-08-19T04:50:03;27.70;;;23.77;;
6209;SDS011;3138;52.550;13.148;2022-08-19T04:52:30;24.17;;;21.57;;
6209;SDS011;3138;52.550;13.148;2022-08-19T04:54:57;26.90;;;24.10;;
6209;SDS011;3138;52.550;13.148;2022-08-19T04:57:25;26.67;;;23.70;;
6209;SDS011;3138;52.550;13.148;2022-08-19T04:59:53;31.13;;;24.90;;
6209;SDS011;3138;52.550;13.148;2022-08-19T05:02:20;29.70;;;25.27;;
6209;SDS011;3138;52.550;13.148;2022-08-19T05:04:49;30.57;;;24.60;;
6209;SDS011;3138;52.550;13.148;2022-08-19T05:07:18;31.23;;;25.47;;
6209;SDS011;3138;52.550;13.148;2022-08-19T05:09:44;27.50;;;23.13;;
6209;SDS011;3138;52.550;13.148;2022-08-19T05:12:11;34.37;;;24.73;;
6209;SDS011;3138;52.550;13.148;2022-08-19T05:14:38;36.30;;;27.17;;
6209;SDS011;3138;52.550;13.148;2022-08-19T05:17:05;25.80;;;23.03;;
6209;SDS011;3138;52.550;13.148;2022-08-19T05:19:31;30.40;;;24.30;;
6209;SDS011;3138;52.550;13.148;2022-08-19T05:22:17;27.20;;;24.50;;
6209;SDS011;3138;52.550;13.148;2022-08-19T05:25:01;26.90;;;24.30;;
6209;SDS011;3138;52.550;13.148;2022-08-19T05:27:30;46.83;;;25.03;;
6209;SDS011;3138;52.550;13.148;2022-08-19T05:29:57;24.27;;;21.77;;
6209;SDS011;3138;52.550;13.148;2022-08-19T05:32:24;32.07;;;24.13;;
6209;SDS011;3138;52.550;13.148;2022-08-19T05:34:51;26.90;;;23.03;;
6209;SDS011;3138;52.550;13.148;2022-08-19T05:37:19;25.97;;;21.97;;
6209;SDS011;3138;52.550;13.148;2022-08-19T05:39:46;25.33;;;20.80;;
6209;SDS011;3138;52.550;13.148;2022-08-19T05:42:14;23.30;;;20.00;;
6209;SDS011;3138;52.550;13.148;2022-08-19T05:44:42;29.53;;;23.23;;
6209;SDS011;3138;52.550;13.148;2022-08-19T05:47:10;26.70;;;20.70;;
6209;SDS011;3138;52.550;13.148;2022-08-19T05:49:38;27.50;;;21.70;;
6209;SDS011;3138;52.550;13.148;2022-08-19T05:52:06;25.17;;;19.73;;
6209;SDS011;3138;52.550;13.148;2022-08-19T05:54:37;21.90;;;19.67;;
6209;SDS011;3138;52.550;13.148;2022-08-19T05:57:07;23.30;;;19.40;;
6209;SDS011;3138;52.550;13.148;2022-08-19T05:59:35;23.00;;;19.70;;
6209;SDS011;3138;52.550;13.148;2022-08-19T06:02:02;23.13;;;18.40;;
6209;SDS011;3138;52.550;13.148;2022-08-19T06:04:31;23.17;;;18.63;;
6209;SDS011;3138;52.550;13.148;2022-08-19T06:06:58;22.07;;;19.50;;
6209;SDS011;3138;52.550;13.148;2022-08-19T06:09:26;23.50;;;18.90;;
6209;SDS011;3138;52.550;13.148;2022-08-19T06:11:55;26.60;;;19.33;;
6209;SDS011;3138;52.550;13.148;2022-08-19T06:14:25;22.27;;;19.97;;
6209;SDS011;3138;52.550;13.148;2022-08-19T06:16:55;26.83;;;20.03;;
6209;SDS011;3138;52.550;13.148;2022-08-19T06:19:27;25.30;;;18.90;;
6209;SDS011;3138;52.550;13.148;2022-08-19T06:21:55;23.57;;;19.63;;
6209;SDS011;3138;52.550;13.148;2022-08-19T06:24:23;41.63;;;22.17;;
6209;SDS011;3138;52.550;13.148;2022-08-19T06:26:54;22.70;;;20.03;;
6209;SDS011;3138;52.550;13.148;2022-08-19T06:29:25;22.77;;;19.20;;
6209;SDS011;3138;52.550;13.148;2022-08-19T06:31:54;26.43;;;21.10;;
6209;SDS011;3138;52.550;13.148;2022-08-19T06:34:22;25.97;;;20.33;;
6209;SDS011;3138;52.550;13.148;2022-08-19T06:36:51;20.97;;;18.83;;
6209;SDS011;3138;52.550;13.148;2022-08-19T06:39:20;23.27;;;19.30;;
6209;SDS011;3138;52.550;13.148;2022-08-19T06:41:50;21.73;;;18.87;;
6209;SDS011;3138;52.550;13.148;2022-08-19T06:44:21;29.10;;;19.53;;
6209;SDS011;3138;52.550;13.148;2022-08-19T06:46:50;20.60;;;18.13;;
6209;SDS011;3138;52.550;13.148;2022-08-19T06:49:17;20.20;;;18.17;;
6209;SDS011;3138;52.550;13.148;2022-08-19T06:51:45;22.30;;;18.67;;
6209;SDS011;3138;52.550;13.148;2022-08-19T06:54:13;27.43;;;17.80;;
6209;SDS011;3138;52.550;13.148;2022-08-19T06:56:40;20.90;;;18.50;;
6209;SDS011;3138;52.550;13.148;2022-08-19T06:59:12;21.50;;;18.73;;
6209;SDS011;3138;52.550;13.148;2022-08-19T07:01:52;25.47;;;19.47;;
6209;SDS011;3138;52.550;13.148;2022-08-19T07:04:23;21.53;;;19.03;;
6209;SDS011;3138;52.550;13.148;2022-08-19T07:07:05;30.77;;;20.30;;
6209;SDS011;3138;52.550;13.148;2022-08-19T07:09:37;23.33;;;20.87;;
6209;SDS011;3138;52.550;13.148;2022-08-19T07:12:11;23.07;;;19.50;;
6209;SDS011;3138;52.550;13.148;2022-08-19T07:14:40;27.87;;;20.30;;
6209;SDS011;3138;52.550;13.148;2022-08-19T07:17:10;19.97;;;17.97;;
6209;SDS011;3138;52.550;13.148;2022-08-19T07:19:38;22.93;;;20.33;;
6209;SDS011;3138;52.550;13.148;2022-08-19T07:22:21;21.67;;;19.43;;
6209;SDS011;3138;52.550;13.148;2022-08-19T07:24:48;27.73;;;20.83;;
6209;SDS011;3138;52.550;13.148;2022-08-19T07:27:15;29.40;;;21.33;;
6209;SDS011;3138;52.550;13.148;2022-08-19T07:29:43;27.30;;;21.40;;
6209;SDS011;3138;52.550;13.148;2022-08-19T07:32:12;25.37;;;20.73;;
6209;SDS011;3138;52.550;13.148;2022-08-19T07:34:39;25.10;;;22.43;;
6209;SDS011;3138;52.550;13.148;2022-08-19T07:37:17;23.87;;;21.57;;
6209;SDS011;3138;52.550;13.148;2022-08-19T07:39:45;30.63;;;22.47;;
6209;SDS011;3138;52.550;13.148;2022-08-19T07:42:14;28.03;;;21.90;;
6209;SDS011;3138;52.550;13.148;2022-08-19T07:44:42;30.20;;;24.47;;
6209;SDS011;3138;52.550;13.148;2022-08-19T07:47:08;29.00;;;23.67;;
6209;SDS011;3138;52.550;13.148;2022-08-19T07:49:36;30.63;;;22.90;;
6209;SDS011;3138;52.550;13.148;2022-08-19T07:52:08;29.07;;;23.93;;
6209;SDS011;3138;52.550;13.148;2022-08-19T07:54:36;28.50;;;24.97;;
6209;SDS011;3138;52.550;13.148;2022-08-19T07:57:04;30.23;;;25.27;;
6209;SDS011;3138;52.550;13.148;2022-08-19T08:02:13;33.70;;;24.53;;
6209;SDS011;3138;52.550;13.148;2022-08-19T08:04:42;30.40;;;26.80;;
6209;SDS011;3138;52.550;13.148;2022-08-19T08:07:26;28.33;;;25.63;;
6209;SDS011;3138;52.550;13.148;2022-08-19T08:10:12;33.13;;;25.13;;
6209;SDS011;3138;52.550;13.148;2022-08-19T08:12:40;30.93;;;25.97;;
6209;SDS011;3138;52.550;13.148;2022-08-19T08:15:10;30.60;;;27.53;;
6209;SDS011;3138;52.550;13.148;2022-08-19T08:17:41;29.47;;;24.80;;
6209;SDS011;3138;52.550;13.148;2022-08-19T08:20:10;29.67;;;24.57;;
6209;SDS011;3138;52.550;13.148;2022-08-19T08:22:42;27.53;;;24.57;;
6209;SDS011;3138;52.550;13.148;2022-08-19T08:25:27;29.43;;;25.57;;
6209;SDS011;3138;52.550;13.148;2022-08-19T08:27:54;27.97;;;24.97;;
6209;SDS011;3138;52.550;13.148;2022-08-19T08:30:25;31.80;;;26.50;;
6209;SDS011;3138;52.550;13.148;2022-08-19T08:32:52;30.10;;;25.00;;
6209;SDS011;3138;52.550;13.148;2022-08-19T08:35:22;30.60;;;25.70;;
6209;SDS011;3138;52.550;13.148;2022-08-19T08:37:50;31.30;;;27.50;;
6209;SDS011;3138;52.550;13.148;2022-08-19T08:40:20;28.30;;;25.30;;
6209;SDS011;3138;52.550;13.148;2022-08-19T08:42:55;35.53;;;27.37;;
6209;SDS011;3138;52.550;13.148;2022-08-19T08:45:30;27.63;;;24.73;;
6209;SDS011;3138;52.550;13.148;2022-08-19T08:48:00;29.93;;;25.87;;
6209;SDS011;3138;52.550;13.148;2022-08-19T08:50:39;31.33;;;24.60;;
6209;SDS011;3138;52.550;13.148;2022-08-19T08:53:16;34.97;;;26.97;;
6209;SDS011;3138;52.550;13.148;2022-08-19T08:55:44;32.83;;;28.87;;
6209;SDS011;3138;52.550;13.148;2022-08-19T08:58:13;39.13;;;28.67;;
6209;SDS011;3138;52.550;13.148;2022-08-19T09:00:46;30.30;;;26.30;;
6209;SDS011;3138;52.550;13.148;2022-08-19T09:03:16;32.90;;;25.67;;
6209;SDS011;3138;52.550;13.148;2022-08-19T09:05:47;30.37;;;27.17;;
6209;SDS011;3138;52.550;13.148;2022-08-19T09:08:24;29.00;;;25.90;;
6209;SDS011;3138;52.550;13.148;2022-08-19T09:10:59;28.87;;;25.80;;
6209;SDS011;3138;52.550;13.148;2022-08-19T09:13:31;29.13;;;26.00;;
6209;SDS011;3138;52.550;13.148;2022-08-19T09:16:07;31.00;;;27.63;;
6209;SDS011;3138;52.550;13.148;2022-08-19T09:18:38;26.70;;;23.23;;
6209;SDS011;3138;52.550;13.148;2022-08-19T09:21:08;27.47;;;23.87;;
6209;SDS011;3138;52.550;13.148;2022-08-19T09:23:35;26.87;;;24.23;;
6209;SDS011;3138;52.550;13.148;2022-08-19T09:26:06;27.30;;;24.60;;
6209;SDS011;3138;52.550;13.148;2022-08-19T09:28:33;27.27;;;24.40;;
6209;SDS011;3138;52.550;13.148;2022-08-19T09:31:02;30.93;;;25.43;;
6209;SDS011;3138;52.550;13.148;2022-08-19T09:33:29;28.40;;;24.47;;
6209;SDS011;3138;52.550;13.148;2022-08-19T09:36:03;29.90;;;26.30;;
6209;SDS011;3138;52.550;13.148;2022-08-19T09:38:33;30.43;;;25.37;;
6209;SDS011;3138;52.550;13.148;2022-08-19T09:41:03;28.03;;;24.90;;
6209;SDS011;3138;52.550;13.148;2022-08-19T09:43:30;29.77;;;24.73;;
6209;SDS011;3138;52.550;13.148;2022-08-19T09:45:58;27.23;;;23.80;;
6209;SDS011;3138;52.550;13.148;2022-08-19T09:48:26;30.47;;;23.33;;
6209;SDS011;3138;52.550;13.148;2022-08-19T09:50:52;29.70;;;23.90;;
6209;SDS011;3138;52.550;13.148;2022-08-19T09:53:19;25.83;;;22.70;;
6209;SDS011;3138;52.550;13.148;2022-08-19T09:55:49;27.37;;;23.60;;
6209;SDS011;3138;52.550;13.148;2022-08-19T09:58:16;27.00;;;24.33;;
6209;SDS011;3138;52.550;13.148;2022-08-19T10:00:42;34.83;;;25.77;;
6209;SDS011;3138;52.550;13.148;2022-08-19T10:03:10;27.43;;;24.57;;
6209;SDS011;3138;52.550;13.148;2022-08-19T10:05:37;27.53;;;23.60;;
6209;SDS011;3138;52.550;13.148;2022-08-19T10:08:17;26.43;;;23.50;;
6209;SDS011;3138;52.550;13.148;2022-08-19T10:10:45;27.90;;;24.73;;
6209;SDS011;3138;52.550;13.148;2022-08-19T10:13:15;27.57;;;23.90;;
6209;SDS011;3138;52.550;13.148;2022-08-19T10:15:47;29.67;;;23.97;;
6209;SDS011;3138;52.550;13.148;2022-08-19T10:18:15;24.60;;;22.30;;
6209;SDS011;3138;52.550;13.148;2022-08-19T10:20:43;29.17;;;21.97;;
6209;SDS011;3138;52.550;13.148;2022-08-19T10:23:10;24.53;;;21.93;;
6209;SDS011;3138;52.550;13.148;2022-08-19T10:25:37;31.87;;;22.33;;
6209;SDS011;3138;52.550;13.148;2022-08-19T10:28:04;25.00;;;22.40;;
6209;SDS011;3138;52.550;13.148;2022-08-19T10:30:33;30.50;;;22.50;;
6209;SDS011;3138;52.550;13.148;2022-08-19T10:33:02;24.00;;;21.50;;
6209;SDS011;3138;52.550;13.148;2022-08-19T10:35:33;30.27;;;22.30;;
6209;SDS011;3138;52.550;13.148;2022-08-19T10:38:01;29.03;;;21.83;;
6209;SDS011;3138;52.550;13.148;2022-08-19T10:40:28;22.37;;;20.13;;
6209;SDS011;3138;52.550;13.148;2022-08-19T10:43:04;23.90;;;20.57;;
6209;SDS011;3138;52.550;13.148;2022-08-19T10:45:48;21.53;;;19.33;;
6209;SDS011;3138;52.550;13.148;2022-08-19T10:48:18;21.87;;;18.43;;
6209;SDS011;3138;52.550;13.148;2022-08-19T10:50:45;20.00;;;17.90;;
6209;SDS011;3138;52.550;13.148;2022-08-19T10:53:30;25.53;;;20.03;;
6209;SDS011;3138;52.550;13.148;2022-08-19T10:55:56;19.97;;;18.07;;
6209;SDS011;3138;52.550;13.148;2022-08-19T10:58:41;22.10;;;19.60;;
6209;SDS011;3138;52.550;13.148;2022-08-19T11:01:09;20.23;;;16.70;;
6209;SDS011;3138;52.550;13.148;2022-08-19T11:03:36;21.13;;;17.90;;
6209;SDS011;3138;52.550;13.148;2022-08-19T11:06:04;22.33;;;17.73;;
6209;SDS011;3138;52.550;13.148;2022-08-19T11:08:32;19.00;;;17.00;;
6209;SDS011;3138;52.550;13.148;2022-08-19T11:11:02;18.37;;;16.47;;
6209;SDS011;3138;52.550;13.148;2022-08-19T11:13:33;23.10;;;16.53;;
6209;SDS011;3138;52.550;13.148;2022-08-19T11:16:02;18.33;;;15.50;;
6209;SDS011;3138;52.550;13.148;2022-08-19T11:18:33;17.20;;;15.43;;
6209;SDS011;3138;52.550;13.148;2022-08-19T11:21:08;17.90;;;14.23;;
6209;SDS011;3138;52.550;13.148;2022-08-19T11:23:37;17.53;;;14.93;;
6209;SDS011;3138;52.550;13.148;2022-08-19T11:26:04;16.87;;;14.77;;
6209;SDS011;3138;52.550;13.148;2022-08-19T11:28:30;16.23;;;12.97;;
6209;SDS011;3138;52.550;13.148;2022-08-19T11:30:57;15.47;;;13.90;;
6209;SDS011;3138;52.550;13.148;2022-08-19T11:33:26;18.43;;;14.23;;
6209;SDS011;3138;52.550;13.148;2022-08-19T11:35:54;16.47;;;14.10;;
6209;SDS011;3138;52.550;13.148;2022-08-19T11:38:23;15.67;;;13.30;;
6209;SDS011;3138;52.550;13.148;2022-08-19T11:40:54;14.80;;;13.40;;
6209;SDS011;3138;52.550;13.148;2022-08-19T11:43:22;15.03;;;13.60;;
6209;SDS011;3138;52.550;13.148;2022-08-19T11:45:49;18.50;;;13.80;;
6209;SDS011;3138;52.550;13.148;2022-08-19T11:48:16;15.90;;;14.20;;
6209;SDS011;3138;52.550;13.148;2022-08-19T11:50:47;15.43;;;13.90;;
6209;SDS011;3138;52.550;13.148;2022-08-19T11:53:16;15.60;;;14.20;;
6209;SDS011;3138;52.550;13.148;2022-08-19T11:55:44;15.03;;;13.27;;
6209;SDS011;3138;52.550;13.148;2022-08-19T11:58:11;15.03;;;13.60;;
6209;SDS011;3138;52.550;13.148;2022-08-19T12:00:38;18.03;;;14.30;;
6209;SDS011;3138;52.550;13.148;2022-08-19T12:03:05;15.37;;;13.70;;
6209;SDS011;3138;52.550;13.148;2022-08-19T12:05:32;14.20;;;12.37;;
6209;SDS011;3138;52.550;13.148;2022-08-19T12:07:59;14.60;;;13.10;;
6209;SDS011;3138;52.550;13.148;2022-08-19T12:10:27;18.10;;;12.23;;
6209;SDS011;3138;52.550;13.148;2022-08-19T12:12:54;13.00;;;11.70;;
6209;SDS011;3138;52.550;13.148;2022-08-19T12:15:21;19.83;;;11.93;;
6209;SDS011;3138;52.550;13.148;2022-08-19T12:17:48;13.07;;;11.73;;
6209;SDS011;3138;52.550;13.148;2022-08-19T12:20:15;13.03;;;11.73;;
6209;SDS011;3138;52.550;13.148;2022-08-19T12:22:42;12.00;;;10.77;;
6209;SDS011;3138;52.550;13.148;2022-08-19T12:25:09;15.37;;;11.80;;
6209;SDS011;3138;52.550;13.148;2022-08-19T12:27:38;14.63;;;12.07;;
6209;SDS011;3138;52.550;13.148;2022-08-19T12:30:06;10.80;;;9.70;;
6209;SDS011;3138;52.550;13.148;2022-08-19T12:32:34;12.43;;;11.30;;
6209;SDS011;3138;52.550;13.148;2022-08-19T12:35:01;11.80;;;10.67;;
6209;SDS011;3138;52.550;13.148;2022-08-19T12:37:28;13.17;;;11.10;;
6209;SDS011;3138;52.550;13.148;2022-08-19T12:39:56;13.10;;;10.87;;
6209;SDS011;3138;52.550;13.148;2022-08-19T12:42:23;16.27;;;10.83;;
6209;SDS011;3138;52.550;13.148;2022-08-19T12:44:52;11.40;;;10.30;;
6209;SDS011;3138;52.550;13.148;2022-08-19T12:47:18;18.03;;;11.30;;
6209;SDS011;3138;52.550;13.148;2022-08-19T12:49:46;13.07;;;11.90;;
6209;SDS011;3138;52.550;13.148;2022-08-19T12:52:14;13.30;;;11.90;;
6209;SDS011;3138;52.550;13.148;2022-08-19T12:54:41;12.03;;;10.93;;
6209;SDS011;3138;52.550;13.148;2022-08-19T12:57:09;13.70;;;12.30;;
6209;SDS011;3138;52.550;13.148;2022-08-19T12:59:38;13.00;;;11.80;;
6209;SDS011;3138;52.550;13.148;2022-08-19T13:02:06;15.40;;;11.73;;
6209;SDS011;3138;52.550;13.148;2022-08-19T13:04:34;13.97;;;12.57;;
6209;SDS011;3138;52.550;13.148;2022-08-19T13:07:05;21.60;;;11.83;;
6209;SDS011;3138;52.550;13.148;2022-08-19T13:09:32;13.13;;;11.87;;
6209;SDS011;3138;52.550;13.148;2022-08-19T13:11:59;13.10;;;12.00;;
6209;SDS011;3138;52.550;13.148;2022-08-19T13:14:27;15.13;;;13.00;;
6209;SDS011;3138;52.550;13.148;2022-08-19T13:16:56;13.37;;;11.97;;
6209;SDS011;3138;52.550;13.148;2022-08-19T13:19:24;14.03;;;11.40;;
6209;SDS011;3138;52.550;13.148;2022-08-19T13:21:52;16.90;;;13.63;;
6209;SDS011;3138;52.550;13.148;2022-08-19T13:24:20;14.00;;;12.47;;
6209;SDS011;3138;52.550;13.148;2022-08-19T13:26:47;14.90;;;12.87;;
6209;SDS011;3138;52.550;13.148;2022-08-19T13:29:13;19.53;;;12.60;;
6209;SDS011;3138;52.550;13.148;2022-08-19T13:31:58;14.07;;;12.67;;
6209;SDS011;3138;52.550;13.148;2022-08-19T13:34:43;16.87;;;13.40;;
6209;SDS011;3138;52.550;13.148;2022-08-19T13:37:11;16.10;;;14.50;;
6209;SDS011;3138;52.550;13.148;2022-08-19T13:39:39;12.97;;;11.87;;
6209;SDS011;3138;52.550;13.148;2022-08-19T13:42:06;18.40;;;13.17;;
6209;SDS011;3138;52.550;13.148;2022-08-19T13:44:35;16.33;;;12.87;;
6209;SDS011;3138;52.550;13.148;2022-08-19T13:47:03;16.67;;;13.20;;
6209;SDS011;3138;52.550;13.148;2022-08-19T13:49:31;14.57;;;13.13;;
6209;SDS011;3138;52.550;13.148;2022-08-19T13:52:00;17.40;;;14.13;;
6209;SDS011;3138;52.550;13.148;2022-08-19T13:54:26;13.23;;;11.97;;
6209;SDS011;3138;52.550;13.148;2022-08-19T13:56:53;20.97;;;13.83;;
6209;SDS011;3138;52.550;13.148;2022-08-19T13:59:20;13.10;;;11.73;;
6209;SDS011;3138;52.550;13.148;2022-08-19T14:01:47;17.10;;;11.63;;
6209;SDS011;3138;52.550;13.148;2022-08-19T14:04:15;14.40;;;12.97;;
6209;SDS011;3138;52.550;13.148;2022-08-19T14:06:41;22.37;;;13.03;;
6209;SDS011;3138;52.550;13.148;2022-08-19T14:09:09;13.60;;;12.40;;
6209;SDS011;3138;52.550;13.148;2022-08-19T14:11:36;21.03;;;12.17;;
6209;SDS011;3138;52.550;13.148;2022-08-19T14:14:03;14.47;;;12.97;;
6209;SDS011;3138;52.550;13.148;2022-08-19T14:16:30;13.40;;;12.13;;
6209;SDS011;3138;52.550;13.148;2022-08-19T14:18:56;14.60;;;13.20;;
6209;SDS011;3138;52.550;13.148;2022-08-19T14:21:24;15.63;;;13.23;;
6209;SDS011;3138;52.550;13.148;2022-08-19T14:23:51;14.93;;;12.10;;
6209;SDS011;3138;52.550;13.148;2022-08-19T14:26:20;18.80;;;12.47;;
6209;SDS011;3138;52.550;13.148;2022-08-19T14:28:48;14.50;;;13.00;;
6209;SDS011;3138;52.550;13.148;2022-08-19T14:31:15;15.50;;;12.40;;
6209;SDS011;3138;52.550;13.148;2022-08-19T14:33:44;12.97;;;11.57;;
6209;SDS011;3138;52.550;13.148;2022-08-19T14:36:11;16.90;;;12.90;;
6209;SDS011;3138;52.550;13.148;2022-08-19T14:38:38;14.33;;;12.93;;
6209;SDS011;3138;52.550;13.148;2022-08-19T14:41:09;13.93;;;12.37;;
6209;SDS011;3138;52.550;13.148;2022-08-19T14:43:40;14.07;;;12.00;;
6209;SDS011;3138;52.550;13.148;2022-08-19T14:46:07;16.33;;;12.33;;